Capitol Princess — WDI8561 — position and weather

sailwx.info

Track history (hours):
 
Tides and Currents Weather Stations Pressure Air Temp Water Temp Dewpoint Dewpoint Depression Visibility Wind Speed Wind Dir Waves Ship Positions

Capitol Princess

Owner: New York Fishing Adventures, Oceanside, NY. More information available from US FCC via Universal Licensing System and Coast Guard Vessel Documentation Center.

Last reported at 2018-Jun-24 20:30 UTC. Time now 2018-Jun-24 20:31 UTC.
Position N 40°44' W 073°58'.

Length 20 m; draft 1.8 m.

Type: Fishing. MMSI: 367739850.

Date/timePositionNaut miles runAvg speedWind from/ knotsBaromVisibWave heightAir tempDewpointWater temp
2018-Jun-24 20:30N 40°44' W 073°58'0 0.2
2018-Jun-24 19:51N 40°44' W 073°58'0 0.0
2018-Jun-24 19:26N 40°44' W 073°58'3 7.9
2018-Jun-24 19:00N 40°41' W 074°01'510.1
2018-Jun-24 18:30N 40°36' W 074°02'6 2.4
2018-Jun-24 15:51N 40°32' W 073°56'0 0.1
2018-Jun-24 15:14N 40°32' W 073°56'1 3.1
2018-Jun-24 14:52N 40°32' W 073°58'411.5
2018-Jun-24 14:30N 40°35' W 074°02'611.8
2018-Jun-24 14:00N 40°41' W 074°01'4 6.9
2018-Jun-24 13:30N 40°44' W 073°58'0 0.0
2018-Jun-24 12:59N 40°44' W 073°58'0 0.0
2018-Jun-24 12:30N 40°44' W 073°58'1 1.5
2018-Jun-24 12:00N 40°43' W 073°58'3 6.6
2018-Jun-24 11:30N 40°41' W 074°01'0 0.0
2018-Jun-24 11:00N 40°41' W 074°01'0 0.0
2018-Jun-24 10:30N 40°41' W 074°01'0 0.0
2018-Jun-24 10:00N 40°41' W 074°01'0 0.0
2018-Jun-24 09:30N 40°41' W 074°01'0 0.0
2018-Jun-24 09:00N 40°41' W 074°01'0 0.0
2018-Jun-24 08:31N 40°41' W 074°01'0 0.0
2018-Jun-24 08:00N 40°41' W 074°01'0 0.0
2018-Jun-24 07:30N 40°41' W 074°01'0 0.0
2018-Jun-24 07:01N 40°41' W 074°01'0 0.0
2018-Jun-24 06:29N 40°41' W 074°01'0 0.0
2018-Jun-24 06:00N 40°41' W 074°01'0 0.0
2018-Jun-24 05:29N 40°41' W 074°01'0 0.0
2018-Jun-24 05:00N 40°41' W 074°01'0 0.0
2018-Jun-24 04:30N 40°41' W 074°01'0 0.0
2018-Jun-24 04:00N 40°41' W 074°01'0 0.0
2018-Jun-24 03:30N 40°41' W 074°01'0 0.0
2018-Jun-24 03:01N 40°41' W 074°01'0 0.0
2018-Jun-24 02:30N 40°41' W 074°01'0 0.0
2018-Jun-24 02:00N 40°41' W 074°01'0 0.0
2018-Jun-24 01:30N 40°41' W 074°01'0 0.0
2018-Jun-24 01:00N 40°41' W 074°01'0 0.0
2018-Jun-24 00:30N 40°41' W 074°01'0 0.0
2018-Jun-24 00:00N 40°41' W 074°01'0 0.0
2018-Jun-23 23:30N 40°41' W 074°01'0 0.0
2018-Jun-23 23:00N 40°41' W 074°01'0 0.0
2018-Jun-23 22:30N 40°41' W 074°01'0 0.0
2018-Jun-23 22:00N 40°41' W 074°01'0 0.0
2018-Jun-23 21:30N 40°41' W 074°01'0 0.0
2018-Jun-23 21:01N 40°41' W 074°01'0 0.0
2018-Jun-23 20:31N 40°41' W 074°01'0 0.0
2018-Jun-23 20:00N 40°41' W 074°01'0 0.0
2018-Jun-23 19:31N 40°41' W 074°01'0 0.0
2018-Jun-23 19:00N 40°41' W 074°01'0 0.0
2018-Jun-23 18:30N 40°41' W 074°01'0 0.0
2018-Jun-23 18:00N 40°41' W 074°01'0 0.0
2018-Jun-23 17:30N 40°41' W 074°01'0 0.0
2018-Jun-23 17:00N 40°41' W 074°01'0 0.0
2018-Jun-23 16:30N 40°41' W 074°01'0 0.0
2018-Jun-23 16:00N 40°41' W 074°01'0 0.0
2018-Jun-23 15:30N 40°41' W 074°01'0 0.0
2018-Jun-23 15:00N 40°41' W 074°01'0 0.0
2018-Jun-23 14:30N 40°41' W 074°01'0 0.0
2018-Jun-23 14:01N 40°41' W 074°01'0 0.0
2018-Jun-23 13:31N 40°41' W 074°01'0 0.0
2018-Jun-23 13:00N 40°41' W 074°01'0 0.0
2018-Jun-23 12:31N 40°41' W 074°01'0 0.0
2018-Jun-23 12:00N 40°41' W 074°01'0 0.0
2018-Jun-23 11:30N 40°41' W 074°01'0 0.0
2018-Jun-23 11:00N 40°41' W 074°01'0 0.0
2018-Jun-23 10:30N 40°41' W 074°01'0 0.0
2018-Jun-23 10:00N 40°41' W 074°01'0 0.0
2018-Jun-23 09:30N 40°41' W 074°01'0 0.0
2018-Jun-23 08:59N 40°41' W 074°01'0 0.0
2018-Jun-23 08:30N 40°41' W 074°01'0 0.0
2018-Jun-23 08:00N 40°41' W 074°01'0 0.0
2018-Jun-23 07:30N 40°41' W 074°01'0 0.0
2018-Jun-23 07:00N 40°41' W 074°01'0 0.0
2018-Jun-23 06:30N 40°41' W 074°01'0 0.0
2018-Jun-23 06:00N 40°41' W 074°01'0 0.0
2018-Jun-23 05:30N 40°41' W 074°01'0 0.0
2018-Jun-23 05:00N 40°41' W 074°01'0 0.0
2018-Jun-23 04:30N 40°41' W 074°01'0 0.0
2018-Jun-23 04:01N 40°41' W 074°01'0 0.0
2018-Jun-23 03:30N 40°41' W 074°01'0 0.0
2018-Jun-23 03:00N 40°41' W 074°01'0 0.0
2018-Jun-23 02:30N 40°41' W 074°01'0 0.0
2018-Jun-23 02:00N 40°41' W 074°01'0 0.0
2018-Jun-23 01:30N 40°41' W 074°01'0 0.0
2018-Jun-23 01:00N 40°41' W 074°01'4 6.2
2018-Jun-23 00:24N 40°44' W 073°58'0 0.0
2018-Jun-22 23:54N 40°44' W 073°58'0 0.0
2018-Jun-22 23:30N 40°44' W 073°58'0 0.0
2018-Jun-22 23:00N 40°44' W 073°58'5 9.6
2018-Jun-22 22:30N 40°40' W 074°01'5 6.6
2018-Jun-22 21:44N 40°35' W 074°00'0 0.3
2018-Jun-22 21:29N 40°35' W 074°00'0 0.3
2018-Jun-22 20:54N 40°35' W 074°01'0 0.1
2018-Jun-22 20:26N 40°35' W 074°00'0 0.1
2018-Jun-22 19:53N 40°35' W 074°00'1 1.7
2018-Jun-22 19:30N 40°35' W 074°01'4 9.1
2018-Jun-22 19:00N 40°40' W 074°01'4 8.9
2018-Jun-22 18:30N 40°44' W 073°58'0 0.8
2018-Jun-22 18:00N 40°44' W 073°58'1 2.6
2018-Jun-22 17:30N 40°43' W 073°58'3 5.3
2018-Jun-22 17:00N 40°41' W 074°01'0 0.0
2018-Jun-22 16:30N 40°41' W 074°01'0 0.0
2018-Jun-22 16:00N 40°41' W 074°01'0 0.0
2018-Jun-22 15:30N 40°41' W 074°01'0 0.0
2018-Jun-22 15:00N 40°41' W 074°01'0 0.0
2018-Jun-22 14:30N 40°41' W 074°01'0 0.0
2018-Jun-22 14:00N 40°41' W 074°01'0 0.0
2018-Jun-22 13:30N 40°41' W 074°01'0 0.0
2018-Jun-22 13:00N 40°41' W 074°01'0 0.0
2018-Jun-22 12:30N 40°41' W 074°01'0 0.0
2018-Jun-22 12:00N 40°41' W 074°01'0 0.0
2018-Jun-22 11:30N 40°41' W 074°01'0 0.0
2018-Jun-22 11:00N 40°41' W 074°01'0 0.0
2018-Jun-22 10:30N 40°41' W 074°01'0 0.0
2018-Jun-22 10:00N 40°41' W 074°01'0 0.0
2018-Jun-22 09:30N 40°41' W 074°01'0 0.0
2018-Jun-22 09:00N 40°41' W 074°01'0 0.0
2018-Jun-22 08:30N 40°41' W 074°01'0 0.0
2018-Jun-22 08:00N 40°41' W 074°01'0 0.0
2018-Jun-22 07:30N 40°41' W 074°01'0 0.0
2018-Jun-22 07:00N 40°41' W 074°01'0 0.0
2018-Jun-22 06:30N 40°41' W 074°01'0 0.0
2018-Jun-22 06:00N 40°41' W 074°01'0 0.0
2018-Jun-22 05:30N 40°41' W 074°01'0 0.4
2018-Jun-22 05:00N 40°41' W 074°01'4 5.3
2018-Jun-22 04:20N 40°44' W 073°58'0 0.0
2018-Jun-22 03:46N 40°44' W 073°58'2 6.5
2018-Jun-22 03:30N 40°42' W 073°59'510.4
2018-Jun-22 03:00N 40°38' W 074°03'2 4.5
2018-Jun-22 02:30N 40°36' W 074°03'0 0.0
2018-Jun-22 02:00N 40°36' W 074°03'3 6.5
2018-Jun-22 01:30N 40°39' W 074°02'0 0.0
2018-Jun-22 01:00N 40°39' W 074°02'0 0.0
2018-Jun-22 00:30N 40°39' W 074°02'0 0.0
2018-Jun-22 00:00N 40°39' W 074°02'4 7.1
2018-Jun-21 23:30N 40°42' W 074°00'2 4.7
2018-Jun-21 23:00N 40°44' W 073°58'4 7.7
2018-Jun-21 22:30N 40°41' W 074°01'0 0.0
2018-Jun-21 22:00N 40°41' W 074°01'0 0.0
2018-Jun-21 21:30N 40°41' W 074°01'0 0.0
2018-Jun-21 21:00N 40°41' W 074°01'0 0.0
2018-Jun-21 20:30N 40°41' W 074°01'0 0.0
2018-Jun-21 20:00N 40°41' W 074°01'0 0.0
2018-Jun-21 19:30N 40°41' W 074°01'0 0.0
2018-Jun-21 19:00N 40°41' W 074°01'0 0.0
2018-Jun-21 18:30N 40°41' W 074°01'0 0.0
2018-Jun-21 18:00N 40°41' W 074°01'0 0.0
2018-Jun-21 17:29N 40°41' W 074°01'0 0.0
2018-Jun-21 17:00N 40°41' W 074°01'0 0.0
2018-Jun-21 16:30N 40°41' W 074°01'0 0.0
2018-Jun-21 16:00N 40°41' W 074°01'0 0.0
2018-Jun-21 15:30N 40°41' W 074°01'0 0.0
2018-Jun-21 15:00N 40°41' W 074°01'0 0.0
2018-Jun-21 14:30N 40°41' W 074°01'0 0.0
2018-Jun-21 14:00N 40°41' W 074°01'0 0.0
2018-Jun-21 13:30N 40°41' W 074°01'0 0.0
2018-Jun-21 13:00N 40°41' W 074°01'0 0.0
2018-Jun-21 12:30N 40°41' W 074°01'0 0.0
2018-Jun-21 12:00N 40°41' W 074°01'0 0.0
2018-Jun-21 11:30N 40°41' W 074°01'0 0.0
2018-Jun-21 11:00N 40°41' W 074°01'0 0.0
2018-Jun-21 10:30N 40°41' W 074°01'0 0.0
2018-Jun-21 10:00N 40°41' W 074°01'0 0.0
2018-Jun-21 09:30N 40°41' W 074°01'0 0.0
2018-Jun-21 09:00N 40°41' W 074°01'0 0.0
2018-Jun-21 08:30N 40°41' W 074°01'0 0.0
2018-Jun-21 08:00N 40°41' W 074°01'0 0.0
2018-Jun-21 07:30N 40°41' W 074°01'0 0.0
2018-Jun-21 07:00N 40°41' W 074°01'0 0.0
2018-Jun-21 06:30N 40°41' W 074°01'0 0.0
2018-Jun-21 06:00N 40°41' W 074°01'0 0.0
2018-Jun-21 05:30N 40°41' W 074°01'0 0.0
2018-Jun-21 05:00N 40°41' W 074°01'0 0.0
2018-Jun-21 04:30N 40°41' W 074°01'0 0.0
2018-Jun-21 04:00N 40°41' W 074°01'0 0.0
2018-Jun-21 03:30N 40°41' W 074°01'0 0.0
2018-Jun-21 03:00N 40°41' W 074°01'0 0.0
2018-Jun-21 02:29N 40°41' W 074°01'0 0.0
2018-Jun-21 02:00N 40°41' W 074°01'0 0.0
2018-Jun-21 01:30N 40°41' W 074°01'0 0.0
2018-Jun-21 01:00N 40°41' W 074°01'0 0.0
2018-Jun-21 00:30N 40°41' W 074°01'0 0.0
2018-Jun-21 00:00N 40°41' W 074°01'0 0.0
2018-Jun-20 23:30N 40°41' W 074°01'0 0.0
2018-Jun-20 23:00N 40°41' W 074°01'0 0.0
2018-Jun-20 22:30N 40°41' W 074°01'0 0.0
2018-Jun-20 22:00N 40°41' W 074°01'0 0.0
2018-Jun-20 21:30N 40°41' W 074°01'0 0.0
2018-Jun-20 21:00N 40°41' W 074°01'0 0.0
2018-Jun-20 20:30N 40°41' W 074°01'0 0.0
2018-Jun-20 20:00N 40°41' W 074°01'0 0.0
2018-Jun-20 19:30N 40°41' W 074°01'0 0.0
2018-Jun-20 19:00N 40°41' W 074°01'0 0.0
2018-Jun-20 18:30N 40°41' W 074°01'0 0.0
2018-Jun-20 18:00N 40°41' W 074°01'0 0.0
2018-Jun-20 17:30N 40°41' W 074°01'0 0.0
2018-Jun-20 17:00N 40°41' W 074°01'0 0.0
2018-Jun-20 16:30N 40°41' W 074°01'0 0.0
2018-Jun-20 16:00N 40°41' W 074°01'0 0.0
2018-Jun-20 15:30N 40°41' W 074°01'0 0.0
2018-Jun-20 15:00N 40°41' W 074°01'0 0.0
2018-Jun-20 14:30N 40°41' W 074°01'0 0.0
2018-Jun-20 14:00N 40°41' W 074°01'0 0.0
2018-Jun-20 13:30N 40°41' W 074°01'0 0.0
2018-Jun-20 13:00N 40°41' W 074°01'0 0.0
2018-Jun-20 12:30N 40°41' W 074°01'0 0.0
2018-Jun-20 12:00N 40°41' W 074°01'0 0.0
2018-Jun-20 11:30N 40°41' W 074°01'0 0.0
2018-Jun-20 11:00N 40°41' W 074°01'0 0.0
2018-Jun-20 10:30N 40°41' W 074°01'0 0.0
2018-Jun-20 10:00N 40°41' W 074°01'0 0.0
2018-Jun-20 09:30N 40°41' W 074°01'0 0.0
2018-Jun-20 09:00N 40°41' W 074°01'0 0.0
2018-Jun-20 08:30N 40°41' W 074°01'0 0.0
2018-Jun-20 08:00N 40°41' W 074°01'0 0.0
2018-Jun-20 07:30N 40°41' W 074°01'0 0.0
2018-Jun-20 07:00N 40°41' W 074°01'0 0.0
2018-Jun-20 06:30N 40°41' W 074°01'0 0.0
2018-Jun-20 06:00N 40°41' W 074°01'0 0.0
2018-Jun-20 05:30N 40°41' W 074°01'0 0.0
2018-Jun-20 05:00N 40°41' W 074°01'0 0.0
2018-Jun-20 04:30N 40°41' W 074°01'0 0.0
2018-Jun-20 04:00N 40°41' W 074°01'0 0.0
2018-Jun-20 03:30N 40°41' W 074°01'0 0.0
2018-Jun-20 03:00N 40°41' W 074°01'0 0.0
2018-Jun-20 02:30N 40°41' W 074°01'0 0.0
2018-Jun-20 02:00N 40°41' W 074°01'0 0.0
2018-Jun-20 01:30N 40°41' W 074°01'0 0.0
2018-Jun-20 01:00N 40°41' W 074°01'0 0.0
2018-Jun-20 00:30N 40°41' W 074°01'0 0.0
2018-Jun-20 00:00N 40°41' W 074°01'0 0.0
2018-Jun-19 23:30N 40°41' W 074°01'0 0.0
2018-Jun-19 23:00N 40°41' W 074°01'0 0.0
2018-Jun-19 22:30N 40°41' W 074°01'0 0.0
2018-Jun-19 22:00N 40°41' W 074°01'0 0.0
2018-Jun-19 21:30N 40°41' W 074°01'0 0.0
2018-Jun-19 21:00N 40°41' W 074°01'0 0.0
2018-Jun-19 20:30N 40°41' W 074°01'0 0.0
2018-Jun-19 20:00N 40°41' W 074°01'0 0.0
2018-Jun-19 19:30N 40°41' W 074°01'0 0.0
2018-Jun-19 19:00N 40°41' W 074°01'0 0.0
2018-Jun-19 18:30N 40°41' W 074°01'0 0.0
2018-Jun-19 18:00N 40°41' W 074°01'0 0.0
2018-Jun-19 17:30N 40°41' W 074°01'0 0.0
2018-Jun-19 17:00N 40°41' W 074°01'0 0.0
2018-Jun-19 16:30N 40°41' W 074°01'0 0.0
2018-Jun-19 16:00N 40°41' W 074°01'0 0.0
2018-Jun-19 15:30N 40°41' W 074°01'0 0.0
2018-Jun-19 15:00N 40°41' W 074°01'0 0.0
2018-Jun-19 14:29N 40°41' W 074°01'0 0.0
2018-Jun-19 14:00N 40°41' W 074°01'0 0.0
2018-Jun-19 13:30N 40°41' W 074°01'0 0.0
2018-Jun-19 13:00N 40°41' W 074°01'0 0.0
2018-Jun-19 12:30N 40°41' W 074°01'0 0.0
2018-Jun-19 12:00N 40°41' W 074°01'0 0.0
2018-Jun-19 11:30N 40°41' W 074°01'0 0.0
2018-Jun-19 11:00N 40°41' W 074°01'0 0.0
2018-Jun-19 10:30N 40°41' W 074°01'0 0.0
2018-Jun-19 10:00N 40°41' W 074°01'0 0.0
2018-Jun-19 09:30N 40°41' W 074°01'0 0.0
2018-Jun-19 09:00N 40°41' W 074°01'0 0.0
2018-Jun-19 08:30N 40°41' W 074°01'0 0.0
2018-Jun-19 08:00N 40°41' W 074°01'0 0.0
2018-Jun-19 07:30N 40°41' W 074°01'0 0.0
2018-Jun-19 06:59N 40°41' W 074°01'0 0.0
2018-Jun-19 06:30N 40°41' W 074°01'0 0.0
2018-Jun-19 06:00N 40°41' W 074°01'0 0.0
2018-Jun-19 05:30N 40°41' W 074°01'0 0.0
2018-Jun-19 05:00N 40°41' W 074°01'0 0.0
2018-Jun-19 04:30N 40°41' W 074°01'0 0.0
2018-Jun-19 04:00N 40°41' W 074°01'0 0.0
2018-Jun-19 03:30N 40°41' W 074°01'0 0.0
2018-Jun-19 03:00N 40°41' W 074°01'0 0.0
2018-Jun-19 02:29N 40°41' W 074°01'0 0.0
2018-Jun-19 02:00N 40°41' W 074°01'0 0.0
2018-Jun-19 01:30N 40°41' W 074°01'0 0.0
2018-Jun-19 01:00N 40°41' W 074°01'0 0.0
2018-Jun-19 00:30N 40°41' W 074°01'0 0.0
2018-Jun-19 00:00N 40°41' W 074°01'0 0.0
2018-Jun-18 23:30N 40°41' W 074°01'0 0.0
2018-Jun-18 23:00N 40°41' W 074°01'3 6.6
2018-Jun-18 22:31N 40°43' W 073°58'3 5.7
2018-Jun-18 22:00N 40°41' W 074°01'3 6.1
2018-Jun-18 21:28N 40°44' W 073°58'0 0.0
2018-Jun-18 20:43N 40°44' W 073°58'0 0.0
2018-Jun-18 20:29N 40°44' W 073°58'0 0.0
2018-Jun-18 19:53N 40°44' W 073°58'0 0.0
2018-Jun-18 19:28N 40°44' W 073°58'0 0.0
2018-Jun-18 18:31N 40°44' W 073°58'0 0.0
2018-Jun-18 18:29N 40°44' W 073°58'0 0.0
2018-Jun-18 17:59N 40°44' W 073°58'0 0.0
2018-Jun-18 17:24N 40°44' W 073°58'0 0.0
2018-Jun-18 16:53N 40°44' W 073°58'0 0.0
2018-Jun-18 16:30N 40°44' W 073°58'0 0.0
2018-Jun-18 16:00N 40°44' W 073°58'0 0.0
2018-Jun-18 15:27N 40°44' W 073°58'0 0.0
2018-Jun-18 14:54N 40°44' W 073°58'0 0.0
2018-Jun-18 14:14N 40°44' W 073°58'0 0.0
2018-Jun-18 13:27N 40°44' W 073°58'0 0.0
2018-Jun-18 12:58N 40°44' W 073°58'0 0.0
2018-Jun-18 12:29N 40°44' W 073°58'0 0.0
2018-Jun-18 11:58N 40°44' W 073°58'0 0.0
2018-Jun-18 11:23N 40°44' W 073°58'0 0.0
2018-Jun-18 10:56N 40°44' W 073°58'0 0.0
2018-Jun-18 10:24N 40°44' W 073°58'0 0.0
2018-Jun-18 09:44N 40°44' W 073°58'0 0.0
2018-Jun-18 09:26N 40°44' W 073°58'0 0.0
2018-Jun-18 08:52N 40°44' W 073°58'0 0.0
2018-Jun-18 08:29N 40°44' W 073°58'0 0.0
2018-Jun-18 08:00N 40°44' W 073°58'0 0.0
2018-Jun-18 07:29N 40°44' W 073°58'0 0.0
2018-Jun-18 06:58N 40°44' W 073°58'0 0.0
2018-Jun-18 03:58N 40°44' W 073°58'0 0.0
2018-Jun-18 03:13N 40°44' W 073°58'0 0.0
2018-Jun-18 02:55N 40°44' W 073°58'0 0.0
2018-Jun-18 02:27N 40°44' W 073°58'0 0.0
2018-Jun-17 23:09N 40°44' W 073°58'0 0.0
2018-Jun-17 22:48N 40°44' W 073°58'0 0.0
2018-Jun-17 22:27N 40°44' W 073°58'0 0.0
2018-Jun-17 21:55N 40°44' W 073°58'0 0.0
2018-Jun-17 20:16N 40°44' W 073°58'2 6.9
2018-Jun-17 19:54N 40°42' W 074°00'4 9.9
2018-Jun-17 19:29N 40°38' W 074°02'5 2.0
2018-Jun-17 16:48N 40°33' W 074°00'4 1.6
2018-Jun-17 14:36N 40°36' W 074°02'210.0
2018-Jun-17 14:24N 40°38' W 074°02'410.0
2018-Jun-17 13:59N 40°42' W 073°60'2 0.4
2018-Jun-17 07:52N 40°44' W 073°58'0 0.0
2018-Jun-17 07:26N 40°44' W 073°58'0 0.0
2018-Jun-17 06:21N 40°44' W 073°58'0 0.0
2018-Jun-17 03:40N 40°44' W 073°58'0 0.0
2018-Jun-17 03:24N 40°44' W 073°58'0 0.0
2018-Jun-17 03:00N 40°44' W 073°58'0 0.0
2018-Jun-17 02:29N 40°44' W 073°58'0 0.7
2018-Jun-17 02:00N 40°44' W 073°58'3 6.2
2018-Jun-17 01:30N 40°42' W 074°01'1 1.8
2018-Jun-17 01:00N 40°42' W 074°02'1 1.5
2018-Jun-17 00:30N 40°43' W 074°02'2 4.0
2018-Jun-17 00:00N 40°43' W 073°59'2 3.2
2018-Jun-16 23:29N 40°44' W 073°58'0 0.0
2018-Jun-16 22:51N 40°44' W 073°58'0 0.0
2018-Jun-16 22:30N 40°44' W 073°58'0 0.0
2018-Jun-16 21:58N 40°44' W 073°58'0 0.0
2018-Jun-16 21:29N 40°44' W 073°58'0 0.0
2018-Jun-16 20:58N 40°44' W 073°58'0 0.0
2018-Jun-16 20:28N 40°44' W 073°58'2 3.7
2018-Jun-16 20:00N 40°42' W 073°59'4 8.9
2018-Jun-16 19:30N 40°39' W 074°02'4 6.5
2018-Jun-16 18:54N 40°35' W 074°01'0 0.0
2018-Jun-16 18:30N 40°35' W 074°01'2 1.3
2018-Jun-16 16:45N 40°33' W 074°01'1 4.1
2018-Jun-16 16:23N 40°32' W 074°02'2 1.9
2018-Jun-16 15:11N 40°34' W 074°02'1 2.7
2018-Jun-16 14:47N 40°35' W 074°01'310.0
2018-Jun-16 14:30N 40°38' W 074°03'510.1
2018-Jun-16 14:00N 40°42' W 073°60'2 4.3
2018-Jun-16 13:30N 40°44' W 073°58'0 0.0
2018-Jun-16 12:59N 40°44' W 073°58'0 0.0
2018-Jun-16 11:44N 40°44' W 073°58'0 0.0
2018-Jun-16 11:29N 40°44' W 073°58'0 0.0
2018-Jun-16 11:00N 40°44' W 073°58'0 0.0
2018-Jun-16 10:27N 40°44' W 073°58'0 0.0
2018-Jun-16 10:00N 40°44' W 073°58'0 0.0
2018-Jun-16 09:30N 40°44' W 073°58'0 0.0
2018-Jun-16 08:55N 40°44' W 073°58'0 0.0
2018-Jun-16 07:10N 40°44' W 073°58'0 0.0
2018-Jun-16 06:43N 40°44' W 073°58'0 0.0
2018-Jun-16 06:27N 40°44' W 073°58'0 0.0
2018-Jun-16 05:59N 40°44' W 073°58'0 0.0
2018-Jun-16 05:30N 40°44' W 073°58'0 0.0
2018-Jun-16 05:00N 40°44' W 073°58'0 0.0
2018-Jun-16 04:30N 40°44' W 073°58'0 0.0
2018-Jun-16 03:59N 40°44' W 073°58'0 0.0
2018-Jun-16 03:23N 40°44' W 073°58'0 0.0
2018-Jun-16 02:43N 40°44' W 073°58'0 0.0
2018-Jun-16 02:29N 40°44' W 073°58'0 0.0
2018-Jun-16 01:57N 40°44' W 073°58'4 9.3
2018-Jun-16 01:31N 40°41' W 074°02'610.8
2018-Jun-16 00:56N 40°35' W 074°00'0 0.3
2018-Jun-16 00:30N 40°35' W 074°01'0 0.6
2018-Jun-16 00:00N 40°35' W 074°01'0 0.4
2018-Jun-15 23:30N 40°35' W 074°01'2 4.0
2018-Jun-15 23:00N 40°37' W 074°03'510.3
2018-Jun-15 22:30N 40°42' W 074°00'3 5.8
2018-Jun-15 21:59N 40°44' W 073°58'0 0.0
2018-Jun-15 21:29N 40°44' W 073°58'0 0.0
2018-Jun-15 20:45N 40°44' W 073°58'0 0.0
2018-Jun-15 20:29N 40°44' W 073°58'0 0.0
2018-Jun-15 19:25N 40°44' W 073°58'0 0.0
2018-Jun-15 19:00N 40°44' W 073°58'0 0.0
2018-Jun-15 18:21N 40°44' W 073°58'0 0.0
2018-Jun-15 18:00N 40°44' W 073°58'0 0.0
2018-Jun-15 17:30N 40°44' W 073°58'0 0.0
2018-Jun-15 16:57N 40°44' W 073°58'0 0.0
2018-Jun-15 16:25N 40°44' W 073°58'0 0.0
2018-Jun-15 15:58N 40°44' W 073°58'0 0.0
2018-Jun-15 15:29N 40°44' W 073°58'0 0.0
2018-Jun-15 14:58N 40°44' W 073°58'0 0.0
2018-Jun-15 14:27N 40°44' W 073°58'0 0.0
2018-Jun-15 13:32N 40°44' W 073°58'0 0.0
2018-Jun-15 13:26N 40°44' W 073°58'0 0.0
2018-Jun-15 13:00N 40°44' W 073°58'0 0.0
2018-Jun-15 12:27N 40°44' W 073°58'0 0.0
2018-Jun-15 11:39N 40°44' W 073°58'0 0.0
2018-Jun-15 11:30N 40°44' W 073°58'0 0.0
2018-Jun-15 11:00N 40°44' W 073°58'0 0.0
2018-Jun-15 10:28N 40°44' W 073°58'0 0.0
2018-Jun-15 09:59N 40°44' W 073°58'0 0.0
2018-Jun-15 09:30N 40°44' W 073°58'0 0.0
2018-Jun-15 09:00N 40°44' W 073°58'0 0.0
2018-Jun-15 08:30N 40°44' W 073°58'0 0.0
2018-Jun-15 07:57N 40°44' W 073°58'0 0.0
2018-Jun-15 07:30N 40°44' W 073°58'0 0.0
2018-Jun-15 07:00N 40°44' W 073°58'0 0.0
2018-Jun-15 06:24N 40°44' W 073°58'0 0.0
2018-Jun-15 05:57N 40°44' W 073°58'0 0.0
2018-Jun-15 05:25N 40°44' W 073°58'0 0.0
2018-Jun-15 05:00N 40°44' W 073°58'0 0.0
2018-Jun-15 04:30N 40°44' W 073°58'0 0.0
2018-Jun-15 03:56N 40°44' W 073°58'0 0.0
2018-Jun-15 01:54N 40°44' W 073°58'0 0.0
2018-Jun-15 01:26N 40°44' W 073°58'0 0.0
2018-Jun-15 00:58N 40°44' W 073°58'0 0.0
2018-Jun-15 00:30N 40°44' W 073°58'0 0.0
2018-Jun-14 23:59N 40°44' W 073°58'0 0.0
2018-Jun-14 23:29N 40°44' W 073°58'0 0.0
2018-Jun-14 22:54N 40°44' W 073°58'0 0.0
2018-Jun-14 22:22N 40°44' W 073°58'0 0.0
2018-Jun-14 21:59N 40°44' W 073°58'0 0.0
2018-Jun-14 21:30N 40°44' W 073°58'0 0.0
2018-Jun-14 20:58N 40°44' W 073°58'  
Track history (hours):
 
Tides and Currents Weather Stations Pressure Air Temp Water Temp Dewpoint Dewpoint Depression Visibility Wind Speed Wind Dir Waves Ship Positions

Capitol Princess

Owner: New York Fishing Adventures, Oceanside, NY. More information available from US FCC via Universal Licensing System and Coast Guard Vessel Documentation Center.

Last reported at 2018-Jun-24 20:30 UTC. Time now 2018-Jun-24 20:31 UTC.
Position N 40°44' W 073°58'.

Length 20 m; draft 1.8 m.

Type: Fishing. MMSI: 367739850.

Date/timePositionNaut miles runAvg speedWind from/ knotsBaromVisibWave heightAir tempDewpointWater temp
2018-Jun-24 20:30N 40°44' W 073°58'0 0.2
2018-Jun-24 19:51N 40°44' W 073°58'0 0.0
2018-Jun-24 19:26N 40°44' W 073°58'3 7.9
2018-Jun-24 19:00N 40°41' W 074°01'510.1
2018-Jun-24 18:30N 40°36' W 074°02'6 2.4
2018-Jun-24 15:51N 40°32' W 073°56'0 0.1
2018-Jun-24 15:14N 40°32' W 073°56'1 3.1
2018-Jun-24 14:52N 40°32' W 073°58'411.5
2018-Jun-24 14:30N 40°35' W 074°02'611.8
2018-Jun-24 14:00N 40°41' W 074°01'4 6.9
2018-Jun-24 13:30N 40°44' W 073°58'0 0.0
2018-Jun-24 12:59N 40°44' W 073°58'0 0.0
2018-Jun-24 12:30N 40°44' W 073°58'1 1.5
2018-Jun-24 12:00N 40°43' W 073°58'3 6.6
2018-Jun-24 11:30N 40°41' W 074°01'0 0.0
2018-Jun-24 11:00N 40°41' W 074°01'0 0.0
2018-Jun-24 10:30N 40°41' W 074°01'0 0.0
2018-Jun-24 10:00N 40°41' W 074°01'0 0.0
2018-Jun-24 09:30N 40°41' W 074°01'0 0.0
2018-Jun-24 09:00N 40°41' W 074°01'0 0.0
2018-Jun-24 08:31N 40°41' W 074°01'0 0.0
2018-Jun-24 08:00N 40°41' W 074°01'0 0.0
2018-Jun-24 07:30N 40°41' W 074°01'0 0.0
2018-Jun-24 07:01N 40°41' W 074°01'0 0.0
2018-Jun-24 06:29N 40°41' W 074°01'0 0.0
2018-Jun-24 06:00N 40°41' W 074°01'0 0.0
2018-Jun-24 05:29N 40°41' W 074°01'0 0.0
2018-Jun-24 05:00N 40°41' W 074°01'0 0.0
2018-Jun-24 04:30N 40°41' W 074°01'0 0.0
2018-Jun-24 04:00N 40°41' W 074°01'0 0.0
2018-Jun-24 03:30N 40°41' W 074°01'0 0.0
2018-Jun-24 03:01N 40°41' W 074°01'0 0.0
2018-Jun-24 02:30N 40°41' W 074°01'0 0.0
2018-Jun-24 02:00N 40°41' W 074°01'0 0.0
2018-Jun-24 01:30N 40°41' W 074°01'0 0.0
2018-Jun-24 01:00N 40°41' W 074°01'0 0.0
2018-Jun-24 00:30N 40°41' W 074°01'0 0.0
2018-Jun-24 00:00N 40°41' W 074°01'0 0.0
2018-Jun-23 23:30N 40°41' W 074°01'0 0.0
2018-Jun-23 23:00N 40°41' W 074°01'0 0.0
2018-Jun-23 22:30N 40°41' W 074°01'0 0.0
2018-Jun-23 22:00N 40°41' W 074°01'0 0.0
2018-Jun-23 21:30N 40°41' W 074°01'0 0.0
2018-Jun-23 21:01N 40°41' W 074°01'0 0.0
2018-Jun-23 20:31N 40°41' W 074°01'0 0.0
2018-Jun-23 20:00N 40°41' W 074°01'0 0.0
2018-Jun-23 19:31N 40°41' W 074°01'0 0.0
2018-Jun-23 19:00N 40°41' W 074°01'0 0.0
2018-Jun-23 18:30N 40°41' W 074°01'0 0.0
2018-Jun-23 18:00N 40°41' W 074°01'0 0.0
2018-Jun-23 17:30N 40°41' W 074°01'0 0.0
2018-Jun-23 17:00N 40°41' W 074°01'0 0.0
2018-Jun-23 16:30N 40°41' W 074°01'0 0.0
2018-Jun-23 16:00N 40°41' W 074°01'0 0.0
2018-Jun-23 15:30N 40°41' W 074°01'0 0.0
2018-Jun-23 15:00N 40°41' W 074°01'0 0.0
2018-Jun-23 14:30N 40°41' W 074°01'0 0.0
2018-Jun-23 14:01N 40°41' W 074°01'0 0.0
2018-Jun-23 13:31N 40°41' W 074°01'0 0.0
2018-Jun-23 13:00N 40°41' W 074°01'0 0.0
2018-Jun-23 12:31N 40°41' W 074°01'0 0.0
2018-Jun-23 12:00N 40°41' W 074°01'0 0.0
2018-Jun-23 11:30N 40°41' W 074°01'0 0.0
2018-Jun-23 11:00N 40°41' W 074°01'0 0.0
2018-Jun-23 10:30N 40°41' W 074°01'0 0.0
2018-Jun-23 10:00N 40°41' W 074°01'0 0.0
2018-Jun-23 09:30N 40°41' W 074°01'0 0.0
2018-Jun-23 08:59N 40°41' W 074°01'0 0.0
2018-Jun-23 08:30N 40°41' W 074°01'0 0.0
2018-Jun-23 08:00N 40°41' W 074°01'0 0.0
2018-Jun-23 07:30N 40°41' W 074°01'0 0.0
2018-Jun-23 07:00N 40°41' W 074°01'0 0.0
2018-Jun-23 06:30N 40°41' W 074°01'0 0.0
2018-Jun-23 06:00N 40°41' W 074°01'0 0.0
2018-Jun-23 05:30N 40°41' W 074°01'0 0.0
2018-Jun-23 05:00N 40°41' W 074°01'0 0.0
2018-Jun-23 04:30N 40°41' W 074°01'0 0.0
2018-Jun-23 04:01N 40°41' W 074°01'0 0.0
2018-Jun-23 03:30N 40°41' W 074°01'0 0.0
2018-Jun-23 03:00N 40°41' W 074°01'0 0.0
2018-Jun-23 02:30N 40°41' W 074°01'0 0.0
2018-Jun-23 02:00N 40°41' W 074°01'0 0.0
2018-Jun-23 01:30N 40°41' W 074°01'0 0.0
2018-Jun-23 01:00N 40°41' W 074°01'4 6.2
2018-Jun-23 00:24N 40°44' W 073°58'0 0.0
2018-Jun-22 23:54N 40°44' W 073°58'0 0.0
2018-Jun-22 23:30N 40°44' W 073°58'0 0.0
2018-Jun-22 23:00N 40°44' W 073°58'5 9.6
2018-Jun-22 22:30N 40°40' W 074°01'5 6.6
2018-Jun-22 21:44N 40°35' W 074°00'0 0.3
2018-Jun-22 21:29N 40°35' W 074°00'0 0.3
2018-Jun-22 20:54N 40°35' W 074°01'0 0.1
2018-Jun-22 20:26N 40°35' W 074°00'0 0.1
2018-Jun-22 19:53N 40°35' W 074°00'1 1.7
2018-Jun-22 19:30N 40°35' W 074°01'4 9.1
2018-Jun-22 19:00N 40°40' W 074°01'4 8.9
2018-Jun-22 18:30N 40°44' W 073°58'0 0.8
2018-Jun-22 18:00N 40°44' W 073°58'1 2.6
2018-Jun-22 17:30N 40°43' W 073°58'3 5.3
2018-Jun-22 17:00N 40°41' W 074°01'0 0.0
2018-Jun-22 16:30N 40°41' W 074°01'0 0.0
2018-Jun-22 16:00N 40°41' W 074°01'0 0.0
2018-Jun-22 15:30N 40°41' W 074°01'0 0.0
2018-Jun-22 15:00N 40°41' W 074°01'0 0.0
2018-Jun-22 14:30N 40°41' W 074°01'0 0.0
2018-Jun-22 14:00N 40°41' W 074°01'0 0.0
2018-Jun-22 13:30N 40°41' W 074°01'0 0.0
2018-Jun-22 13:00N 40°41' W 074°01'0 0.0
2018-Jun-22 12:30N 40°41' W 074°01'0 0.0
2018-Jun-22 12:00N 40°41' W 074°01'0 0.0
2018-Jun-22 11:30N 40°41' W 074°01'0 0.0
2018-Jun-22 11:00N 40°41' W 074°01'0 0.0
2018-Jun-22 10:30N 40°41' W 074°01'0 0.0
2018-Jun-22 10:00N 40°41' W 074°01'0 0.0
2018-Jun-22 09:30N 40°41' W 074°01'0 0.0
2018-Jun-22 09:00N 40°41' W 074°01'0 0.0
2018-Jun-22 08:30N 40°41' W 074°01'0 0.0
2018-Jun-22 08:00N 40°41' W 074°01'0 0.0
2018-Jun-22 07:30N 40°41' W 074°01'0 0.0
2018-Jun-22 07:00N 40°41' W 074°01'0 0.0
2018-Jun-22 06:30N 40°41' W 074°01'0 0.0
2018-Jun-22 06:00N 40°41' W 074°01'0 0.0
2018-Jun-22 05:30N 40°41' W 074°01'0 0.4
2018-Jun-22 05:00N 40°41' W 074°01'4 5.3
2018-Jun-22 04:20N 40°44' W 073°58'0 0.0
2018-Jun-22 03:46N 40°44' W 073°58'2 6.5
2018-Jun-22 03:30N 40°42' W 073°59'510.4
2018-Jun-22 03:00N 40°38' W 074°03'2 4.5
2018-Jun-22 02:30N 40°36' W 074°03'0 0.0
2018-Jun-22 02:00N 40°36' W 074°03'3 6.5
2018-Jun-22 01:30N 40°39' W 074°02'0 0.0
2018-Jun-22 01:00N 40°39' W 074°02'0 0.0
2018-Jun-22 00:30N 40°39' W 074°02'0 0.0
2018-Jun-22 00:00N 40°39' W 074°02'4 7.1
2018-Jun-21 23:30N 40°42' W 074°00'2 4.7
2018-Jun-21 23:00N 40°44' W 073°58'4 7.7
2018-Jun-21 22:30N 40°41' W 074°01'0 0.0
2018-Jun-21 22:00N 40°41' W 074°01'0 0.0
2018-Jun-21 21:30N 40°41' W 074°01'0 0.0
2018-Jun-21 21:00N 40°41' W 074°01'0 0.0
2018-Jun-21 20:30N 40°41' W 074°01'0 0.0
2018-Jun-21 20:00N 40°41' W 074°01'0 0.0
2018-Jun-21 19:30N 40°41' W 074°01'0 0.0
2018-Jun-21 19:00N 40°41' W 074°01'0 0.0
2018-Jun-21 18:30N 40°41' W 074°01'0 0.0
2018-Jun-21 18:00N 40°41' W 074°01'0 0.0
2018-Jun-21 17:29N 40°41' W 074°01'0 0.0
2018-Jun-21 17:00N 40°41' W 074°01'0 0.0
2018-Jun-21 16:30N 40°41' W 074°01'0 0.0
2018-Jun-21 16:00N 40°41' W 074°01'0 0.0
2018-Jun-21 15:30N 40°41' W 074°01'0 0.0
2018-Jun-21 15:00N 40°41' W 074°01'0 0.0
2018-Jun-21 14:30N 40°41' W 074°01'0 0.0
2018-Jun-21 14:00N 40°41' W 074°01'0 0.0
2018-Jun-21 13:30N 40°41' W 074°01'0 0.0
2018-Jun-21 13:00N 40°41' W 074°01'0 0.0
2018-Jun-21 12:30N 40°41' W 074°01'0 0.0
2018-Jun-21 12:00N 40°41' W 074°01'0 0.0
2018-Jun-21 11:30N 40°41' W 074°01'0 0.0
2018-Jun-21 11:00N 40°41' W 074°01'0 0.0
2018-Jun-21 10:30N 40°41' W 074°01'0 0.0
2018-Jun-21 10:00N 40°41' W 074°01'0 0.0
2018-Jun-21 09:30N 40°41' W 074°01'0 0.0
2018-Jun-21 09:00N 40°41' W 074°01'0 0.0
2018-Jun-21 08:30N 40°41' W 074°01'0 0.0
2018-Jun-21 08:00N 40°41' W 074°01'0 0.0
2018-Jun-21 07:30N 40°41' W 074°01'0 0.0
2018-Jun-21 07:00N 40°41' W 074°01'0 0.0
2018-Jun-21 06:30N 40°41' W 074°01'0 0.0
2018-Jun-21 06:00N 40°41' W 074°01'0 0.0
2018-Jun-21 05:30N 40°41' W 074°01'0 0.0
2018-Jun-21 05:00N 40°41' W 074°01'0 0.0
2018-Jun-21 04:30N 40°41' W 074°01'0 0.0
2018-Jun-21 04:00N 40°41' W 074°01'0 0.0
2018-Jun-21 03:30N 40°41' W 074°01'0 0.0
2018-Jun-21 03:00N 40°41' W 074°01'0 0.0
2018-Jun-21 02:29N 40°41' W 074°01'0 0.0
2018-Jun-21 02:00N 40°41' W 074°01'0 0.0
2018-Jun-21 01:30N 40°41' W 074°01'0 0.0
2018-Jun-21 01:00N 40°41' W 074°01'0 0.0
2018-Jun-21 00:30N 40°41' W 074°01'0 0.0
2018-Jun-21 00:00N 40°41' W 074°01'0 0.0
2018-Jun-20 23:30N 40°41' W 074°01'0 0.0
2018-Jun-20 23:00N 40°41' W 074°01'0 0.0
2018-Jun-20 22:30N 40°41' W 074°01'0 0.0
2018-Jun-20 22:00N 40°41' W 074°01'0 0.0
2018-Jun-20 21:30N 40°41' W 074°01'0 0.0
2018-Jun-20 21:00N 40°41' W 074°01'0 0.0
2018-Jun-20 20:30N 40°41' W 074°01'0 0.0
2018-Jun-20 20:00N 40°41' W 074°01'0 0.0
2018-Jun-20 19:30N 40°41' W 074°01'0 0.0
2018-Jun-20 19:00N 40°41' W 074°01'0 0.0
2018-Jun-20 18:30N 40°41' W 074°01'0 0.0
2018-Jun-20 18:00N 40°41' W 074°01'0 0.0
2018-Jun-20 17:30N 40°41' W 074°01'0 0.0
2018-Jun-20 17:00N 40°41' W 074°01'0 0.0
2018-Jun-20 16:30N 40°41' W 074°01'0 0.0
2018-Jun-20 16:00N 40°41' W 074°01'0 0.0
2018-Jun-20 15:30N 40°41' W 074°01'0 0.0
2018-Jun-20 15:00N 40°41' W 074°01'0 0.0
2018-Jun-20 14:30N 40°41' W 074°01'0 0.0
2018-Jun-20 14:00N 40°41' W 074°01'0 0.0
2018-Jun-20 13:30N 40°41' W 074°01'0 0.0
2018-Jun-20 13:00N 40°41' W 074°01'0 0.0
2018-Jun-20 12:30N 40°41' W 074°01'0 0.0
2018-Jun-20 12:00N 40°41' W 074°01'0 0.0
2018-Jun-20 11:30N 40°41' W 074°01'0 0.0
2018-Jun-20 11:00N 40°41' W 074°01'0 0.0
2018-Jun-20 10:30N 40°41' W 074°01'0 0.0
2018-Jun-20 10:00N 40°41' W 074°01'0 0.0
2018-Jun-20 09:30N 40°41' W 074°01'0 0.0
2018-Jun-20 09:00N 40°41' W 074°01'0 0.0
2018-Jun-20 08:30N 40°41' W 074°01'0 0.0
2018-Jun-20 08:00N 40°41' W 074°01'0 0.0
2018-Jun-20 07:30N 40°41' W 074°01'0 0.0
2018-Jun-20 07:00N 40°41' W 074°01'0 0.0
2018-Jun-20 06:30N 40°41' W 074°01'0 0.0
2018-Jun-20 06:00N 40°41' W 074°01'0 0.0
2018-Jun-20 05:30N 40°41' W 074°01'0 0.0
2018-Jun-20 05:00N 40°41' W 074°01'0 0.0
2018-Jun-20 04:30N 40°41' W 074°01'0 0.0
2018-Jun-20 04:00N 40°41' W 074°01'0 0.0
2018-Jun-20 03:30N 40°41' W 074°01'0 0.0
2018-Jun-20 03:00N 40°41' W 074°01'0 0.0
2018-Jun-20 02:30N 40°41' W 074°01'0 0.0
2018-Jun-20 02:00N 40°41' W 074°01'0 0.0
2018-Jun-20 01:30N 40°41' W 074°01'0 0.0
2018-Jun-20 01:00N 40°41' W 074°01'0 0.0
2018-Jun-20 00:30N 40°41' W 074°01'0 0.0
2018-Jun-20 00:00N 40°41' W 074°01'0 0.0
2018-Jun-19 23:30N 40°41' W 074°01'0 0.0
2018-Jun-19 23:00N 40°41' W 074°01'0 0.0
2018-Jun-19 22:30N 40°41' W 074°01'0 0.0
2018-Jun-19 22:00N 40°41' W 074°01'0 0.0
2018-Jun-19 21:30N 40°41' W 074°01'0 0.0
2018-Jun-19 21:00N 40°41' W 074°01'0 0.0
2018-Jun-19 20:30N 40°41' W 074°01'0 0.0
2018-Jun-19 20:00N 40°41' W 074°01'0 0.0
2018-Jun-19 19:30N 40°41' W 074°01'0 0.0
2018-Jun-19 19:00N 40°41' W 074°01'0 0.0
2018-Jun-19 18:30N 40°41' W 074°01'0 0.0
2018-Jun-19 18:00N 40°41' W 074°01'0 0.0
2018-Jun-19 17:30N 40°41' W 074°01'0 0.0
2018-Jun-19 17:00N 40°41' W 074°01'0 0.0
2018-Jun-19 16:30N 40°41' W 074°01'0 0.0
2018-Jun-19 16:00N 40°41' W 074°01'0 0.0
2018-Jun-19 15:30N 40°41' W 074°01'0 0.0
2018-Jun-19 15:00N 40°41' W 074°01'0 0.0
2018-Jun-19 14:29N 40°41' W 074°01'0 0.0
2018-Jun-19 14:00N 40°41' W 074°01'0 0.0
2018-Jun-19 13:30N 40°41' W 074°01'0 0.0
2018-Jun-19 13:00N 40°41' W 074°01'0 0.0
2018-Jun-19 12:30N 40°41' W 074°01'0 0.0
2018-Jun-19 12:00N 40°41' W 074°01'0 0.0
2018-Jun-19 11:30N 40°41' W 074°01'0 0.0
2018-Jun-19 11:00N 40°41' W 074°01'0 0.0
2018-Jun-19 10:30N 40°41' W 074°01'0 0.0
2018-Jun-19 10:00N 40°41' W 074°01'0 0.0
2018-Jun-19 09:30N 40°41' W 074°01'0 0.0
2018-Jun-19 09:00N 40°41' W 074°01'0 0.0
2018-Jun-19 08:30N 40°41' W 074°01'0 0.0
2018-Jun-19 08:00N 40°41' W 074°01'0 0.0
2018-Jun-19 07:30N 40°41' W 074°01'0 0.0
2018-Jun-19 06:59N 40°41' W 074°01'0 0.0
2018-Jun-19 06:30N 40°41' W 074°01'0 0.0
2018-Jun-19 06:00N 40°41' W 074°01'0 0.0
2018-Jun-19 05:30N 40°41' W 074°01'0 0.0
2018-Jun-19 05:00N 40°41' W 074°01'0 0.0
2018-Jun-19 04:30N 40°41' W 074°01'0 0.0
2018-Jun-19 04:00N 40°41' W 074°01'0 0.0
2018-Jun-19 03:30N 40°41' W 074°01'0 0.0
2018-Jun-19 03:00N 40°41' W 074°01'0 0.0
2018-Jun-19 02:29N 40°41' W 074°01'0 0.0
2018-Jun-19 02:00N 40°41' W 074°01'0 0.0
2018-Jun-19 01:30N 40°41' W 074°01'0 0.0
2018-Jun-19 01:00N 40°41' W 074°01'0 0.0
2018-Jun-19 00:30N 40°41' W 074°01'0 0.0
2018-Jun-19 00:00N 40°41' W 074°01'0 0.0
2018-Jun-18 23:30N 40°41' W 074°01'0 0.0
2018-Jun-18 23:00N 40°41' W 074°01'3 6.6
2018-Jun-18 22:31N 40°43' W 073°58'3 5.7
2018-Jun-18 22:00N 40°41' W 074°01'3 6.1
2018-Jun-18 21:28N 40°44' W 073°58'0 0.0
2018-Jun-18 20:43N 40°44' W 073°58'0 0.0
2018-Jun-18 20:29N 40°44' W 073°58'0 0.0
2018-Jun-18 19:53N 40°44' W 073°58'0 0.0
2018-Jun-18 19:28N 40°44' W 073°58'0 0.0
2018-Jun-18 18:31N 40°44' W 073°58'0 0.0
2018-Jun-18 18:29N 40°44' W 073°58'0 0.0
2018-Jun-18 17:59N 40°44' W 073°58'0 0.0
2018-Jun-18 17:24N 40°44' W 073°58'0 0.0
2018-Jun-18 16:53N 40°44' W 073°58'0 0.0
2018-Jun-18 16:30N 40°44' W 073°58'0 0.0
2018-Jun-18 16:00N 40°44' W 073°58'0 0.0
2018-Jun-18 15:27N 40°44' W 073°58'0 0.0
2018-Jun-18 14:54N 40°44' W 073°58'0 0.0
2018-Jun-18 14:14N 40°44' W 073°58'0 0.0
2018-Jun-18 13:27N 40°44' W 073°58'0 0.0
2018-Jun-18 12:58N 40°44' W 073°58'0 0.0
2018-Jun-18 12:29N 40°44' W 073°58'0 0.0
2018-Jun-18 11:58N 40°44' W 073°58'0 0.0
2018-Jun-18 11:23N 40°44' W 073°58'0 0.0
2018-Jun-18 10:56N 40°44' W 073°58'0 0.0
2018-Jun-18 10:24N 40°44' W 073°58'0 0.0
2018-Jun-18 09:44N 40°44' W 073°58'0 0.0
2018-Jun-18 09:26N 40°44' W 073°58'0 0.0
2018-Jun-18 08:52N 40°44' W 073°58'0 0.0
2018-Jun-18 08:29N 40°44' W 073°58'0 0.0
2018-Jun-18 08:00N 40°44' W 073°58'0 0.0
2018-Jun-18 07:29N 40°44' W 073°58'0 0.0
2018-Jun-18 06:58N 40°44' W 073°58'0 0.0
2018-Jun-18 03:58N 40°44' W 073°58'0 0.0
2018-Jun-18 03:13N 40°44' W 073°58'0 0.0
2018-Jun-18 02:55N 40°44' W 073°58'0 0.0
2018-Jun-18 02:27N 40°44' W 073°58'0 0.0
2018-Jun-17 23:09N 40°44' W 073°58'0 0.0
2018-Jun-17 22:48N 40°44' W 073°58'0 0.0
2018-Jun-17 22:27N 40°44' W 073°58'0 0.0
2018-Jun-17 21:55N 40°44' W 073°58'0 0.0
2018-Jun-17 20:16N 40°44' W 073°58'2 6.9
2018-Jun-17 19:54N 40°42' W 074°00'4 9.9
2018-Jun-17 19:29N 40°38' W 074°02'5 2.0
2018-Jun-17 16:48N 40°33' W 074°00'4 1.6
2018-Jun-17 14:36N 40°36' W 074°02'210.0
2018-Jun-17 14:24N 40°38' W 074°02'410.0
2018-Jun-17 13:59N 40°42' W 073°60'2 0.4
2018-Jun-17 07:52N 40°44' W 073°58'0 0.0
2018-Jun-17 07:26N 40°44' W 073°58'0 0.0
2018-Jun-17 06:21N 40°44' W 073°58'0 0.0
2018-Jun-17 03:40N 40°44' W 073°58'0 0.0
2018-Jun-17 03:24N 40°44' W 073°58'0 0.0
2018-Jun-17 03:00N 40°44' W 073°58'0 0.0
2018-Jun-17 02:29N 40°44' W 073°58'0 0.7
2018-Jun-17 02:00N 40°44' W 073°58'3 6.2
2018-Jun-17 01:30N 40°42' W 074°01'1 1.8
2018-Jun-17 01:00N 40°42' W 074°02'1 1.5
2018-Jun-17 00:30N 40°43' W 074°02'2 4.0
2018-Jun-17 00:00N 40°43' W 073°59'2 3.2
2018-Jun-16 23:29N 40°44' W 073°58'0 0.0
2018-Jun-16 22:51N 40°44' W 073°58'0 0.0
2018-Jun-16 22:30N 40°44' W 073°58'0 0.0
2018-Jun-16 21:58N 40°44' W 073°58'0 0.0
2018-Jun-16 21:29N 40°44' W 073°58'0 0.0
2018-Jun-16 20:58N 40°44' W 073°58'0 0.0
2018-Jun-16 20:28N 40°44' W 073°58'2 3.7
2018-Jun-16 20:00N 40°42' W 073°59'4 8.9
2018-Jun-16 19:30N 40°39' W 074°02'4 6.5
2018-Jun-16 18:54N 40°35' W 074°01'0 0.0
2018-Jun-16 18:30N 40°35' W 074°01'2 1.3
2018-Jun-16 16:45N 40°33' W 074°01'1 4.1
2018-Jun-16 16:23N 40°32' W 074°02'2 1.9
2018-Jun-16 15:11N 40°34' W 074°02'1 2.7
2018-Jun-16 14:47N 40°35' W 074°01'310.0
2018-Jun-16 14:30N 40°38' W 074°03'510.1
2018-Jun-16 14:00N 40°42' W 073°60'2 4.3
2018-Jun-16 13:30N 40°44' W 073°58'0 0.0
2018-Jun-16 12:59N 40°44' W 073°58'0 0.0
2018-Jun-16 11:44N 40°44' W 073°58'0 0.0
2018-Jun-16 11:29N 40°44' W 073°58'0 0.0
2018-Jun-16 11:00N 40°44' W 073°58'0 0.0
2018-Jun-16 10:27N 40°44' W 073°58'0 0.0
2018-Jun-16 10:00N 40°44' W 073°58'0 0.0
2018-Jun-16 09:30N 40°44' W 073°58'0 0.0
2018-Jun-16 08:55N 40°44' W 073°58'0 0.0
2018-Jun-16 07:10N 40°44' W 073°58'0 0.0
2018-Jun-16 06:43N 40°44' W 073°58'0 0.0
2018-Jun-16 06:27N 40°44' W 073°58'0 0.0
2018-Jun-16 05:59N 40°44' W 073°58'0 0.0
2018-Jun-16 05:30N 40°44' W 073°58'0 0.0
2018-Jun-16 05:00N 40°44' W 073°58'0 0.0
2018-Jun-16 04:30N 40°44' W 073°58'0 0.0
2018-Jun-16 03:59N 40°44' W 073°58'0 0.0
2018-Jun-16 03:23N 40°44' W 073°58'0 0.0
2018-Jun-16 02:43N 40°44' W 073°58'0 0.0
2018-Jun-16 02:29N 40°44' W 073°58'0 0.0
2018-Jun-16 01:57N 40°44' W 073°58'4 9.3
2018-Jun-16 01:31N 40°41' W 074°02'610.8
2018-Jun-16 00:56N 40°35' W 074°00'0 0.3
2018-Jun-16 00:30N 40°35' W 074°01'0 0.6
2018-Jun-16 00:00N 40°35' W 074°01'0 0.4
2018-Jun-15 23:30N 40°35' W 074°01'2 4.0
2018-Jun-15 23:00N 40°37' W 074°03'510.3
2018-Jun-15 22:30N 40°42' W 074°00'3 5.8
2018-Jun-15 21:59N 40°44' W 073°58'0 0.0
2018-Jun-15 21:29N 40°44' W 073°58'0 0.0
2018-Jun-15 20:45N 40°44' W 073°58'0 0.0
2018-Jun-15 20:29N 40°44' W 073°58'0 0.0
2018-Jun-15 19:25N 40°44' W 073°58'0 0.0
2018-Jun-15 19:00N 40°44' W 073°58'0 0.0
2018-Jun-15 18:21N 40°44' W 073°58'0 0.0
2018-Jun-15 18:00N 40°44' W 073°58'0 0.0
2018-Jun-15 17:30N 40°44' W 073°58'0 0.0
2018-Jun-15 16:57N 40°44' W 073°58'0 0.0
2018-Jun-15 16:25N 40°44' W 073°58'0 0.0
2018-Jun-15 15:58N 40°44' W 073°58'0 0.0
2018-Jun-15 15:29N 40°44' W 073°58'0 0.0
2018-Jun-15 14:58N 40°44' W 073°58'0 0.0
2018-Jun-15 14:27N 40°44' W 073°58'0 0.0
2018-Jun-15 13:32N 40°44' W 073°58'0 0.0
2018-Jun-15 13:26N 40°44' W 073°58'0 0.0
2018-Jun-15 13:00N 40°44' W 073°58'0 0.0
2018-Jun-15 12:27N 40°44' W 073°58'0 0.0
2018-Jun-15 11:39N 40°44' W 073°58'0 0.0
2018-Jun-15 11:30N 40°44' W 073°58'0 0.0
2018-Jun-15 11:00N 40°44' W 073°58'0 0.0
2018-Jun-15 10:28N 40°44' W 073°58'0 0.0
2018-Jun-15 09:59N 40°44' W 073°58'0 0.0
2018-Jun-15 09:30N 40°44' W 073°58'0 0.0
2018-Jun-15 09:00N 40°44' W 073°58'0 0.0
2018-Jun-15 08:30N 40°44' W 073°58'0 0.0
2018-Jun-15 07:57N 40°44' W 073°58'0 0.0
2018-Jun-15 07:30N 40°44' W 073°58'0 0.0
2018-Jun-15 07:00N 40°44' W 073°58'0 0.0
2018-Jun-15 06:24N 40°44' W 073°58'0 0.0
2018-Jun-15 05:57N 40°44' W 073°58'0 0.0
2018-Jun-15 05:25N 40°44' W 073°58'0 0.0
2018-Jun-15 05:00N 40°44' W 073°58'0 0.0
2018-Jun-15 04:30N 40°44' W 073°58'0 0.0
2018-Jun-15 03:56N 40°44' W 073°58'0 0.0
2018-Jun-15 01:54N 40°44' W 073°58'0 0.0
2018-Jun-15 01:26N 40°44' W 073°58'0 0.0
2018-Jun-15 00:58N 40°44' W 073°58'0 0.0
2018-Jun-15 00:30N 40°44' W 073°58'0 0.0
2018-Jun-14 23:59N 40°44' W 073°58'0 0.0
2018-Jun-14 23:29N 40°44' W 073°58'0 0.0
2018-Jun-14 22:54N 40°44' W 073°58'0 0.0
2018-Jun-14 22:22N 40°44' W 073°58'0 0.0
2018-Jun-14 21:59N 40°44' W 073°58'0 0.0
2018-Jun-14 21:30N 40°44' W 073°58'0 0.0
2018-Jun-14 20:58N 40°44' W 073°58'  

Dump ship's entire track history